Time;durP1;ratioP1;P1;durP2;ratioP2;P2;SDS_P1;SDS_P2;PMS_P1;PMS_P2;Temp;Humidity;BMP_temperature;BMP_pressure;BME280_temperature;BME280_humidity;BME280_pressure;Samples;Min_cycle;Max_cycle;Signal;HPM_P1;HPM_P2
2021/12/06 00:00:21;;;;;;;8.85;4.40;;;;;;;19.19;45.75;95924.91;10413622;28;20049;-55
2021/12/06 00:05:41;;;;;;;9.30;4.53;;;;;;;19.17;45.87;95927.97;10373708;28;20104;-54
2021/12/06 00:11:07;;;;;;;10.98;4.72;;;;;;;19.15;45.85;95919.41;10383723;28;20582;-54
2021/12/06 00:16:26;;;;;;;8.85;4.43;;;;;;;19.14;45.76;95920.53;10395374;28;20056;-54
2021/12/06 00:21:47;;;;;;;9.10;4.15;;;;;;;19.14;45.71;95915.13;10407073;28;20049;-54
2021/12/06 00:27:07;;;;;;;8.95;4.50;;;;;;;19.12;45.75;95914.69;10394746;28;20053;-55
2021/12/06 00:32:27;;;;;;;9.30;4.30;;;;;;;19.12;45.57;95920.09;10410136;28;20076;-54
2021/12/06 00:37:55;;;;;;;8.60;4.20;;;;;;;19.10;45.72;95933.94;10385357;28;20057;-54
2021/12/06 00:43:15;;;;;;;7.43;4.13;;;;;;;19.10;45.52;95930.44;10400218;28;20135;-54
2021/12/06 00:48:35;;;;;;;8.18;3.72;;;;;;;19.09;45.65;95936.97;10416607;28;20041;-53
2021/12/06 00:53:54;;;;;;;7.82;4.25;;;;;;;19.07;45.67;95945.44;10386288;28;20060;-54
2021/12/06 00:59:14;;;;;;;7.22;3.90;;;;;;;19.06;45.60;95941.13;10390928;28;20061;-54
2021/12/06 01:04:36;;;;;;;8.02;3.63;;;;;;;19.06;45.61;95949.25;10394315;28;20048;-54
2021/12/06 01:09:56;;;;;;;7.50;4.00;;;;;;;19.04;45.43;95939.91;10386060;28;20054;-54
2021/12/06 01:15:17;;;;;;;7.78;4.05;;;;;;;19.02;45.40;95953.75;10387850;28;20042;-54
2021/12/06 01:20:49;;;;;;;5.95;3.40;;;;;;;19.02;45.52;95963.75;10395379;28;20052;-54
2021/12/06 01:26:29;;;;;;;6.07;3.53;;;;;;;19.00;45.63;95964.09;10374641;28;20053;-54
2021/12/06 01:31:58;;;;;;;8.32;3.85;;;;;;;18.99;45.54;95978.72;10382962;28;20118;-54
2021/12/06 01:43:04;;;;;;;6.28;3.53;;;;;;;18.96;45.29;95985.59;10401534;28;20054;-54
2021/12/06 01:48:23;;;;;;;5.65;3.05;;;;;;;18.96;45.34;95992.91;10392957;28;20045;-54
2021/12/06 01:53:43;;;;;;;6.00;3.47;;;;;;;18.94;45.38;96000.56;10402876;28;20041;-55
2021/12/06 01:59:05;;;;;;;6.10;3.35;;;;;;;18.93;45.28;95994.38;10366930;28;20045;-53
2021/12/06 02:04:25;;;;;;;6.13;3.25;;;;;;;18.93;45.31;96001.66;10387361;28;20041;-54
2021/12/06 02:09:46;;;;;;;6.57;3.13;;;;;;;18.92;45.32;96002.81;10384793;28;20477;-54
2021/12/06 02:15:54;;;;;;;6.07;3.28;;;;;;;18.90;45.18;96005.06;10361439;28;20516;-54
2021/12/06 02:20:58;;;;;;;6.47;3.30;;;;;;;18.90;45.19;96008.53;10383304;28;20112;-54
2021/12/06 02:26:20;;;;;;;6.95;3.13;;;;;;;18.88;45.27;96001.91;10384987;28;20053;-54
2021/12/06 02:31:39;;;;;;;5.90;3.35;;;;;;;18.87;45.09;95997.63;10378477;28;20056;-54
2021/12/06 02:37:00;;;;;;;6.53;3.45;;;;;;;18.86;45.21;96006.88;10371841;28;20061;-54
2021/12/06 02:42:20;;;;;;;5.35;3.10;;;;;;;18.84;45.07;96001.03;10391730;28;20029;-54
2021/12/06 02:47:42;;;;;;;6.43;2.88;;;;;;;18.83;45.19;96007.53;10379684;28;20515;-55
2021/12/06 02:53:02;;;;;;;5.00;3.08;;;;;;;18.82;45.05;96003.25;10381741;28;20056;-53
2021/12/06 03:03:58;;;;;;;5.40;2.97;;;;;;;18.80;45.06;96016.28;10363693;28;20054;-54
2021/12/06 03:09:25;;;;;;;5.47;3.40;;;;;;;18.78;44.99;96006.59;10383777;28;20045;-54
2021/12/06 03:14:51;;;;;;;5.70;3.40;;;;;;;18.76;45.06;96011.56;10381058;28;20640;-54
2021/12/06 03:20:14;;;;;;;4.43;2.80;;;;;;;18.76;44.91;96005.38;10370720;28;20053;-54
2021/12/06 03:25:35;;;;;;;3.83;2.83;;;;;;;18.74;44.78;96013.81;10387205;28;20725;-54
2021/12/06 03:30:54;;;;;;;4.95;2.60;;;;;;;18.73;44.81;96016.81;10387157;28;20041;-54
2021/12/06 03:36:17;;;;;;;4.90;2.83;;;;;;;18.72;44.92;96013.34;10382868;28;20052;-54
2021/12/06 03:41:39;;;;;;;4.30;2.85;;;;;;;18.72;44.99;96017.97;10401729;28;20034;-53
2021/12/06 03:47:04;;;;;;;4.32;2.60;;;;;;;18.71;44.76;96027.94;10383207;28;20054;-54
2021/12/06 03:52:25;;;;;;;5.50;2.70;;;;;;;18.69;44.90;96029.41;10410436;28;20037;-54
2021/12/06 03:57:45;;;;;;;4.38;2.70;;;;;;;18.69;44.84;96032.91;10387512;28;20112;-54
2021/12/06 04:03:09;;;;;;;4.20;2.50;;;;;;;18.68;44.94;96035.94;10404110;28;20633;-54
2021/12/06 04:08:28;;;;;;;5.00;2.70;;;;;;;18.66;44.85;96035.47;10395577;28;20058;-54
2021/12/06 04:13:49;;;;;;;3.40;2.40;;;;;;;18.66;44.83;96036.28;10397198;28;20049;-54
2021/12/06 04:19:09;;;;;;;3.78;2.67;;;;;;;18.66;44.85;96040.88;10406509;28;20547;-54
2021/12/06 04:24:29;;;;;;;4.45;2.38;;;;;;;18.66;44.79;96049.78;10380247;28;20049;-54
2021/12/06 04:29:51;;;;;;;4.45;2.67;;;;;;;18.66;44.97;96059.75;10365688;28;20492;-54
2021/12/06 04:35:13;;;;;;;3.47;2.75;;;;;;;18.66;44.84;96059.75;10372053;28;20058;-54
2021/12/06 04:40:33;;;;;;;3.20;2.40;;;;;;;18.67;44.82;96067.53;10384935;28;20045;-54
2021/12/06 04:45:54;;;;;;;4.15;2.50;;;;;;;18.70;44.64;96066.06;10373524;28;20433;-54
2021/12/06 04:51:14;;;;;;;4.68;2.50;;;;;;;18.72;44.69;96071.94;10405798;28;20042;-54
2021/12/06 04:56:47;;;;;;;4.50;2.70;;;;;;;18.73;44.73;96065.41;10374805;28;20540;-54
2021/12/06 05:02:12;;;;;;;4.53;2.47;;;;;;;18.75;44.64;96068.53;10388227;28;20045;-54
2021/12/06 05:07:38;;;;;;;3.67;2.50;;;;;;;18.75;44.72;96066.63;10372035;28;20045;-54
2021/12/06 05:12:58;;;;;;;3.58;2.30;;;;;;;18.75;44.71;96066.63;10368610;28;20066;-54
2021/12/06 05:18:21;;;;;;;3.00;2.33;;;;;;;18.76;44.51;96073.59;10356448;28;20050;-54
2021/12/06 05:23:41;;;;;;;4.28;2.40;;;;;;;18.77;44.60;96069.78;10380601;28;20053;-54
2021/12/06 05:29:02;;;;;;;3.50;2.22;;;;;;;18.80;44.55;96078.34;10415138;28;20068;-54
2021/12/06 05:34:32;;;;;;;4.18;2.42;;;;;;;18.83;44.69;96080.38;10363822;28;20053;-55
2021/12/06 05:39:51;;;;;;;3.58;2.28;;;;;;;18.85;44.62;96088.94;10393221;28;20484;-54
2021/12/06 05:45:14;;;;;;;4.07;2.42;;;;;;;18.90;44.76;96102.22;10386805;28;20507;-54
2021/12/06 05:50:33;;;;;;;3.35;2.40;;;;;;;18.92;44.90;96100.75;10398526;28;20049;-54
2021/12/06 05:55:53;;;;;;;3.83;2.03;;;;;;;18.96;44.85;96107.03;10405064;28;20056;-55
2021/12/06 06:01:13;;;;;;;4.25;2.28;;;;;;;18.98;44.83;96112.13;10377061;28;20050;-54
2021/12/06 06:06:34;;;;;;;2.60;1.98;;;;;;;19.04;44.86;96118.06;10389659;28;20049;-55
2021/12/06 06:11:54;;;;;;;3.00;2.10;;;;;;;19.07;45.18;96131.69;10395596;28;20054;-55
2021/12/06 06:17:18;;;;;;;2.47;2.10;;;;;;;19.12;45.33;96139.56;10394041;28;20057;-54
2021/12/06 06:22:38;;;;;;;2.42;2.08;;;;;;;19.15;45.54;96141.59;10395788;28;20104;-54
2021/12/06 06:27:58;;;;;;;2.95;2.30;;;;;;;19.18;45.44;96148.22;10392124;28;20042;-54
2021/12/06 06:33:17;;;;;;;3.45;2.00;;;;;;;19.23;45.84;96150.72;10389847;28;20058;-54
2021/12/06 06:38:37;;;;;;;3.85;2.20;;;;;;;19.25;45.95;96164.66;10400438;28;20049;-54
2021/12/06 06:43:58;;;;;;;4.97;2.25;;;;;;;19.27;45.99;96170.50;10390014;28;20050;-54
2021/12/06 06:49:19;;;;;;;2.35;2.08;;;;;;;19.31;45.92;96184.13;10376718;28;20409;-54
2021/12/06 06:54:38;;;;;;;3.25;2.20;;;;;;;19.31;45.97;96198.41;10402297;28;20049;-55
2021/12/06 06:59:58;;;;;;;3.70;2.03;;;;;;;19.34;46.26;96195.03;10409840;28;20049;-55
2021/12/06 07:05:18;;;;;;;3.83;1.98;;;;;;;19.34;46.13;96197.72;10418729;28;20044;-54
2021/12/06 07:10:37;;;;;;;2.92;1.80;;;;;;;19.34;46.09;96213.94;10401198;28;20157;-54
2021/12/06 07:15:59;;;;;;;4.43;2.00;;;;;;;19.35;46.17;96220.94;10396421;28;20052;-55
2021/12/06 07:21:19;;;;;;;9.50;3.25;;;;;;;19.34;44.07;96235.53;10413347;28;20527;-55
2021/12/06 07:26:39;;;;;;;10.05;3.60;;;;;;;19.35;44.28;96242.53;10410552;28;20812;-54
2021/12/06 07:31:58;;;;;;;11.90;3.85;;;;;;;19.40;43.84;96246.13;10412910;28;20505;-54
2021/12/06 07:37:18;;;;;;;11.73;4.20;;;;;;;19.37;43.74;96253.00;10413557;28;20042;-55
2021/12/06 07:42:38;;;;;;;12.07;4.32;;;;;;;19.38;43.88;96254.56;10405994;28;20654;-53
2021/12/06 07:47:58;;;;;;;8.00;5.88;;;;;;;19.08;33.83;96254.75;10401619;28;20103;-54
2021/12/06 07:53:18;;;;;;;9.15;6.05;;;;;;;18.12;30.69;96269.00;10405528;28;20053;-53
2021/12/06 07:58:38;;;;;;;11.00;6.75;;;;;;;17.67;32.40;96258.78;10424012;28;20057;-55
2021/12/06 08:03:59;;;;;;;7.72;5.07;;;;;;;18.05;36.26;96262.56;10397261;28;20559;-55
2021/12/06 08:09:18;;;;;;;8.73;5.10;;;;;;;18.42;37.01;96260.88;10411737;28;20103;-55
2021/12/06 08:14:38;;;;;;;6.63;4.53;;;;;;;18.63;37.42;96263.56;10412752;28;20065;-55
2021/12/06 08:19:57;;;;;;;6.75;4.57;;;;;;;18.74;37.44;96275.53;10412383;28;20053;-55
2021/12/06 08:25:17;;;;;;;7.88;4.88;;;;;;;18.82;37.30;96275.78;10411674;28;20060;-55
2021/12/06 08:30:37;;;;;;;5.97;4.10;;;;;;;18.86;37.31;96279.44;10411970;28;20057;-55
2021/12/06 08:43:36;;;;;;;8.10;4.22;;;;;;;18.84;38.17;96295.16;10517240;27;20427;-56
2021/12/06 08:51:50;;;;;;;5.78;3.92;;;;;;;18.81;38.75;96307.41;10668411;27;20336;-56
2021/12/06 08:59:55;;;;;;;8.18;4.05;;;;;;;18.64;37.67;96305.63;10517190;27;20397;-55
2021/12/06 09:25:59;;;;;;;6.32;3.50;;;;;;;18.41;39.22;96329.44;10519779;27;20393;-56
2021/12/06 09:31:19;;;;;;;8.00;4.35;;;;;;;18.50;39.54;96332.06;10537733;28;20067;-56
2021/12/06 09:36:39;;;;;;;4.95;3.67;;;;;;;18.60;39.77;96323.56;10525364;28;20063;-56
2021/12/06 09:41:59;;;;;;;4.82;4.28;;;;;;;18.65;37.96;96325.28;10536914;28;20037;-56
2021/12/06 09:47:19;;;;;;;6.40;3.42;;;;;;;18.67;39.46;96329.22;10537984;28;20036;-56
2021/12/06 09:52:39;;;;;;;3.92;3.53;;;;;;;18.71;39.73;96332.06;10522247;28;20048;-56
2021/12/06 09:58:00;;;;;;;5.97;3.78;;;;;;;18.67;38.02;96336.53;10504448;28;20497;-56
2021/12/06 10:03:24;;;;;;;7.45;4.00;;;;;;;18.69;39.03;96339.69;10536241;28;20040;-56
2021/12/06 10:08:45;;;;;;;4.65;3.38;;;;;;;18.72;39.36;96337.13;10521683;28;20165;-56
2021/12/06 10:14:05;;;;;;;4.57;3.30;;;;;;;18.76;39.37;96339.97;10521388;28;20049;-55
2021/12/06 10:19:25;;;;;;;5.88;3.38;;;;;;;18.77;39.45;96334.22;10521097;28;20050;-56
2021/12/06 10:24:54;;;;;;;5.50;3.40;;;;;;;18.79;39.68;96333.91;10522584;28;20071;-56
2021/12/06 10:30:14;;;;;;;4.57;3.28;;;;;;;18.78;39.66;96330.41;10523603;28;20711;-56
2021/12/06 10:35:34;;;;;;;4.18;3.10;;;;;;;18.78;39.97;96327.72;10504868;28;20052;-56
2021/12/06 10:41:00;;;;;;;4.40;3.30;;;;;;;18.78;39.90;96333.13;10508783;28;20033;-56
2021/12/06 10:46:20;;;;;;;6.40;3.60;;;;;;;18.77;40.24;96326.13;10495197;28;20076;-56
2021/12/06 10:51:40;;;;;;;5.15;3.40;;;;;;;18.77;40.35;96328.03;10508282;28;20044;-56
2021/12/06 10:57:03;;;;;;;3.90;2.78;;;;;;;18.76;40.25;96329.94;10508325;28;20044;-56
2021/12/06 11:02:22;;;;;;;3.63;2.88;;;;;;;18.76;40.54;96329.94;10506891;28;20050;-56
2021/12/06 11:07:42;;;;;;;4.47;3.20;;;;;;;18.76;40.55;96339.97;10494397;28;20631;-56
2021/12/06 11:13:23;;;;;;;3.50;2.70;;;;;;;18.74;40.51;96343.00;10493892;28;20422;-55
2021/12/06 11:18:47;;;;;;;3.95;3.00;;;;;;;18.74;40.72;96340.28;10493576;28;20041;-56
2021/12/06 11:24:09;;;;;;;4.85;3.00;;;;;;;18.74;40.78;96340.28;10493193;28;20051;-56
2021/12/06 11:29:32;;;;;;;6.03;3.10;;;;;;;18.73;40.75;96335.22;10507055;28;20036;-56
2021/12/06 11:35:09;;;;;;;4.65;3.13;;;;;;;18.72;41.00;96333.66;10493416;28;20059;-56
2021/12/06 11:40:38;;;;;;;4.18;2.92;;;;;;;18.72;41.01;96347.94;10492519;28;20064;-56
2021/12/06 11:45:58;;;;;;;3.00;2.70;;;;;;;18.71;40.94;96346.34;10491789;28;20411;-56
2021/12/06 11:51:19;;;;;;;3.65;3.03;;;;;;;18.69;40.97;96340.47;10492430;28;20560;-56
2021/12/06 11:56:44;;;;;;;4.38;2.97;;;;;;;18.69;41.12;96356.66;10492205;28;20506;-56
2021/12/06 12:02:04;;;;;;;5.78;3.10;;;;;;;18.68;41.17;96347.00;10491716;28;20063;-56
2021/12/06 12:07:23;;;;;;;3.05;2.60;;;;;;;18.67;41.22;96334.63;10505454;28;20041;-56
2021/12/06 12:12:52;;;;;;;3.30;3.00;;;;;;;18.68;41.24;96349.72;10495493;28;20555;-56
2021/12/06 12:18:12;;;;;;;3.33;2.80;;;;;;;18.67;41.27;96344.63;10491801;28;20056;-56
2021/12/06 12:23:33;;;;;;;3.67;3.00;;;;;;;18.66;41.41;96351.13;10490950;28;20064;-56
2021/12/06 12:29:00;;;;;;;3.20;2.70;;;;;;;18.64;41.31;96351.47;10490595;28;20067;-56
2021/12/06 12:34:23;;;;;;;3.40;2.50;;;;;;;18.64;41.41;96347.97;10489461;28;20040;-56
2021/12/06 12:39:42;;;;;;;3.08;2.53;;;;;;;18.62;41.50;96345.63;10504026;28;20079;-56
2021/12/06 12:45:04;;;;;;;3.25;2.75;;;;;;;18.62;41.28;96337.53;10484824;28;20049;-56
2021/12/06 12:50:29;;;;;;;4.15;2.63;;;;;;;18.60;41.23;96347.84;10477380;28;20071;-56
2021/12/06 12:55:50;;;;;;;3.15;2.70;;;;;;;18.59;41.15;96340.88;10480891;28;20063;-56
2021/12/06 13:01:13;;;;;;;4.00;2.92;;;;;;;18.58;41.32;96344.69;10469295;28;20486;-56
2021/12/06 13:06:38;;;;;;;4.13;2.72;;;;;;;18.57;41.35;96343.91;10479939;28;20040;-56
2021/12/06 13:12:05;;;;;;;3.67;2.50;;;;;;;18.55;41.36;96346.13;10466703;28;20041;-56
2021/12/06 13:17:31;;;;;;;3.65;2.60;;;;;;;18.56;41.31;96341.53;10486670;28;20398;-56
2021/12/06 13:22:53;;;;;;;4.55;2.65;;;;;;;18.54;41.39;96343.75;10454622;28;20064;-56
2021/12/06 13:28:13;;;;;;;3.83;2.42;;;;;;;18.53;41.40;96339.50;10461972;28;20053;-56
2021/12/06 13:33:38;;;;;;;2.60;2.30;;;;;;;18.52;41.53;96348.69;10469494;28;20041;-56
2021/12/06 13:38:57;;;;;;;3.22;2.60;;;;;;;18.51;41.67;96350.59;10459390;28;20048;-56
2021/12/06 13:44:21;;;;;;;3.38;2.50;;;;;;;18.51;41.63;96355.22;10469514;28;20067;-56
2021/12/06 13:49:57;;;;;;;2.80;2.40;;;;;;;18.48;41.53;96355.88;10451031;28;20072;-56
2021/12/06 13:55:26;;;;;;;3.05;2.60;;;;;;;18.47;41.78;96357.00;10466722;28;20057;-56
2021/12/06 14:00:46;;;;;;;4.28;2.70;;;;;;;18.50;41.65;96375.22;10448984;28;20056;-56
2021/12/06 14:06:11;;;;;;;2.50;2.30;;;;;;;18.48;41.72;96366.66;10460244;28;20052;-56
2021/12/06 14:11:31;;;;;;;3.42;2.60;;;;;;;18.47;41.84;96370.47;10469121;28;20504;-56
2021/12/06 14:16:51;;;;;;;3.28;2.70;;;;;;;18.48;41.79;96377.44;10500410;28;20043;-56
2021/12/06 14:22:13;;;;;;;2.78;2.38;;;;;;;18.49;41.86;96382.50;10483575;28;20053;-56
2021/12/06 14:27:36;;;;;;;2.78;2.53;;;;;;;18.51;42.07;96387.59;10473257;28;20048;-57
2021/12/06 14:32:57;;;;;;;4.35;2.40;;;;;;;18.53;41.99;96396.94;10482041;28;20056;-56
2021/12/06 14:38:23;;;;;;;2.80;2.38;;;;;;;18.55;41.86;96397.38;10472742;28;20175;-56
2021/12/06 14:43:44;;;;;;;3.38;2.40;;;;;;;18.59;41.90;96402.94;10476481;28;20586;-56
2021/12/06 14:49:12;;;;;;;2.95;2.40;;;;;;;18.62;42.00;96406.88;10484307;28;20649;-56
2021/12/06 14:54:32;;;;;;;3.50;2.30;;;;;;;18.64;42.13;96410.03;10504907;28;20044;-56
2021/12/06 14:59:51;;;;;;;3.22;2.42;;;;;;;18.68;41.89;96411.75;10473063;28;20618;-56
2021/12/06 15:05:12;;;;;;;2.42;2.20;;;;;;;18.72;42.05;96422.69;10487428;28;20048;-56
2021/12/06 15:10:33;;;;;;;2.97;2.50;;;;;;;18.75;42.08;96428.22;10478579;28;20036;-56
2021/12/06 15:15:58;;;;;;;4.05;2.50;;;;;;;18.78;42.00;96430.25;10455246;28;20055;-56
2021/12/06 15:21:24;;;;;;;2.58;2.15;;;;;;;18.84;42.00;96432.81;10467464;28;20539;-56
2021/12/06 15:26:50;;;;;;;2.58;2.20;;;;;;;18.88;42.14;96439.13;10473716;28;20044;-57
2021/12/06 15:32:13;;;;;;;3.22;2.22;;;;;;;18.92;41.82;96434.66;10471798;28;20065;-56
2021/12/06 15:37:34;;;;;;;3.03;2.40;;;;;;;18.96;41.93;96444.44;10488175;28;20052;-57
2021/12/06 15:42:55;;;;;;;2.70;2.20;;;;;;;19.01;41.89;96443.47;10461119;28;20045;-56
2021/12/06 15:48:15;;;;;;;2.63;2.35;;;;;;;19.05;41.92;96444.41;10488582;28;20059;-56
2021/12/06 15:53:41;;;;;;;3.90;2.30;;;;;;;19.10;41.63;96449.59;10455166;28;20476;-56
2021/12/06 15:59:02;;;;;;;3.00;2.70;;;;;;;;;;10488746;28;20094;-55
2021/12/06 16:04:22;;;;;;;4.68;3.08;;;;;;;19.19;41.03;96449.53;10478694;28;20602;-56
2021/12/06 16:09:41;;;;;;;5.00;3.05;;;;;;;19.24;41.06;96449.31;10474458;28;20742;-56
2021/12/06 16:15:04;;;;;;;4.47;2.95;;;;;;;-146.19;100.00;65364.44;10471084;28;20439;-56
2021/12/06 16:20:25;;;;;;;3.83;3.03;;;;;;;19.34;41.67;96453.53;10460838;28;20052;-56
2021/12/06 16:25:54;;;;;;;7.05;4.57;;;;;;;-146.19;100.00;65364.44;10453009;28;20064;-56
2021/12/06 16:31:14;;;;;;;;;;;;;;;19.45;44.06;96470.13;10462219;28;20071;-57
2021/12/06 16:36:37;;;;;;;6.00;3.78;;;;;;;19.51;43.58;96472.28;10454020;28;19920;-57
2021/12/06 16:42:13;;;;;;;6.05;4.00;;;;;;;-146.19;100.00;65364.44;10462941;28;20063;-56
2021/12/06 16:47:35;;;;;;;5.80;3.45;;;;;;;-146.19;100.00;65364.44;10464223;28;20037;-59
2021/12/06 16:53:10;;;;;;;5.85;3.50;;;;;;;-146.19;100.00;65364.44;10447048;28;20045;-59
2021/12/06 16:58:36;;;;;;;6.68;3.38;;;;;;;-146.19;100.00;65364.44;10460830;28;20644;-60
2021/12/06 17:03:57;;;;;;;4.97;3.00;;;;;;;-146.19;100.00;65364.44;10451512;28;20052;-59
2021/12/06 17:09:17;;;;;;;4.13;3.45;;;;;;;-146.19;100.00;65364.44;10459052;28;20075;-59
2021/12/06 17:14:36;;;;;;;6.57;3.03;;;;;;;19.84;43.70;96484.28;10459369;28;20050;-59
2021/12/06 17:19:56;;;;;;;6.05;3.10;;;;;;;19.88;44.01;96491.38;10456465;28;20056;-59
2021/12/06 17:25:15;;;;;;;7.15;3.10;;;;;;;-146.19;100.00;65364.44;10449096;28;20057;-56
2021/12/06 17:30:48;;;;;;;5.38;2.88;;;;;;;-146.19;100.00;65364.44;10452956;28;20558;-56
2021/12/06 17:36:08;;;;;;;5.10;2.85;;;;;;;20.05;43.83;96484.19;10447792;28;20053;-58
2021/12/06 17:41:29;;;;;;;7.22;3.08;;;;;;;20.11;43.83;96474.75;10455721;28;20051;-59
2021/12/06 17:46:50;;;;;;;3.38;2.80;;;;;;;20.15;43.54;96471.06;10471958;28;20061;-58
2021/12/06 17:52:09;;;;;;;5.65;2.65;;;;;;;-146.19;100.00;65364.44;10460975;28;20037;-59
2021/12/06 17:57:32;;;;;;;3.78;2.75;;;;;;;-146.19;100.00;65364.44;10452155;28;20057;-57
2021/12/06 18:02:51;;;;;;;7.38;2.92;;;;;;;-146.19;100.00;65364.44;10466387;28;20033;-57
2021/12/06 18:08:11;;;;;;;6.03;2.63;;;;;;;-146.19;100.00;65364.44;10469823;28;20045;-55
2021/12/06 18:13:32;;;;;;;4.07;2.35;;;;;;;-146.19;100.00;65364.44;10460080;28;20052;-56
2021/12/06 18:18:52;;;;;;;3.17;2.85;;;;;;;-146.19;100.00;65364.44;10468909;28;20033;-56
2021/12/06 18:24:11;;;;;;;3.83;2.60;;;;;;;20.45;42.99;96460.03;10453590;28;20071;-56
2021/12/06 18:29:32;;;;;;;2.65;2.40;;;;;;;20.52;43.03;96462.16;10465134;28;20048;-57
2021/12/06 18:34:52;;;;;;;4.70;2.92;;;;;;;20.57;43.08;96444.94;10458432;28;20040;-57
2021/12/06 18:40:21;;;;;;;2.60;2.22;;;;;;;-146.19;100.00;65364.44;10455007;28;20559;-58
2021/12/06 18:45:41;;;;;;;3.05;2.50;;;;;;;-146.19;100.00;65364.44;10477969;28;20647;-58
2021/12/06 18:51:02;;;;;;;3.40;2.50;;;;;;;-146.19;100.00;65364.44;10462951;28;20118;-58
2021/12/06 18:56:21;;;;;;;2.65;2.25;;;;;;;-146.19;100.00;65364.44;10450926;28;20060;-59
2021/12/06 19:01:41;;;;;;;2.58;2.28;;;;;;;-146.19;100.00;65364.44;10471309;28;20048;-57
2021/12/06 19:07:01;;;;;;;3.45;2.30;;;;;;;-146.19;100.00;65364.44;10470591;28;20037;-58
2021/12/06 19:12:22;;;;;;;3.47;2.28;;;;;;;-146.19;100.00;65364.44;10455087;28;20048;-60
2021/12/06 19:17:42;;;;;;;3.15;2.50;;;;;;;-146.19;100.00;65364.44;10468397;28;20040;-59
2021/12/06 19:23:03;;;;;;;3.13;2.40;;;;;;;-146.19;100.00;65364.44;10464856;28;20511;-59
2021/12/06 19:28:24;;;;;;;2.80;2.50;;;;;;;-146.19;100.00;65364.44;10461167;28;20056;-57
2021/12/06 19:33:44;;;;;;;2.53;2.30;;;;;;;-146.19;100.00;65364.44;10452266;28;20052;-58
2021/12/06 19:39:06;;;;;;;3.75;2.67;;;;;;;-146.19;100.00;65364.44;10464733;28;20493;-56
2021/12/06 19:44:31;;;;;;;2.58;2.38;;;;;;;-146.19;100.00;65364.44;10452054;28;20067;-57
2021/12/06 19:49:52;;;;;;;2.45;2.20;;;;;;;-146.19;100.00;65364.44;10451664;28;20510;-57
2021/12/06 19:55:12;;;;;;;2.75;2.30;;;;;;;-146.19;100.00;65364.44;10456865;28;20091;-57
2021/12/06 20:00:31;;;;;;;3.83;2.58;;;;;;;-146.19;100.00;65364.44;10489961;28;20041;-57
2021/12/06 20:05:52;;;;;;;3.20;2.45;;;;;;;-146.19;100.00;65364.44;10453878;28;20051;-55
2021/12/06 20:11:13;;;;;;;2.78;2.50;;;;;;;-146.19;100.00;65364.44;10467226;28;20044;-56
2021/12/06 20:16:32;;;;;;;2.53;2.33;;;;;;;-146.19;100.00;65364.44;10452289;28;20751;-55
2021/12/06 20:21:53;;;;;;;3.00;2.30;;;;;;;-146.19;100.00;65364.44;10472552;28;20044;-56
2021/12/06 20:27:15;;;;;;;3.55;2.25;;;;;;;-146.19;100.00;65364.44;10461550;28;20045;-56
2021/12/06 20:32:35;;;;;;;2.40;2.20;;;;;;;-146.19;100.00;65364.44;10453634;28;20459;-54
2021/12/06 20:37:54;;;;;;;2.70;2.25;;;;;;;-146.19;100.00;65364.44;10447896;28;20049;-53
2021/12/06 20:43:14;;;;;;;5.35;2.28;;;;;;;-146.19;100.00;65364.44;10465867;28;20048;-54
2021/12/06 20:48:34;;;;;;;2.35;2.10;;;;;;;-146.19;100.00;65364.44;10447195;28;20496;-54
2021/12/06 20:53:54;;;;;;;2.55;2.28;;;;;;;-146.19;100.00;65364.44;10450862;28;20056;-53
2021/12/06 20:59:21;;;;;;;2.65;2.15;;;;;;;-146.19;100.00;65364.44;10451742;28;20122;-54
2021/12/06 21:04:41;;;;;;;4.82;2.85;;;;;;;20.66;42.17;96381.47;10480424;28;20029;-54
2021/12/06 21:10:01;;;;;;;3.35;2.95;;;;;;;20.66;42.99;96373.34;10450584;28;20135;-54
2021/12/06 21:20:44;;;;;;;4.70;3.00;;;;;;;20.65;43.27;96388.00;10447224;28;20049;-54
2021/12/06 21:26:04;;;;;;;3.88;2.97;;;;;;;20.63;43.37;96392.94;10479148;28;20044;-54
2021/12/06 21:31:24;;;;;;;3.75;2.80;;;;;;;20.63;43.36;96403.78;10448195;28;20048;-54
2021/12/06 21:36:44;;;;;;;2.95;2.40;;;;;;;20.62;43.43;96394.09;10478289;28;20374;-55
2021/12/06 21:42:03;;;;;;;4.20;2.60;;;;;;;20.61;43.36;96389.81;10448868;28;20056;-54
2021/12/06 21:47:24;;;;;;;4.93;2.85;;;;;;;20.60;43.53;96392.84;10454659;28;20060;-54
2021/12/06 21:52:44;;;;;;;3.78;2.80;;;;;;;20.60;43.41;96390.94;10473625;28;20519;-54
2021/12/06 21:58:05;;;;;;;3.05;2.70;;;;;;;20.58;43.56;96401.28;10472217;28;20079;-55
2021/12/06 22:03:35;;;;;;;3.38;2.90;;;;;;;20.58;43.49;96398.59;10472764;28;20052;-55
2021/12/06 22:08:54;;;;;;;2.95;2.50;;;;;;;20.55;43.70;96388.44;10464712;28;20056;-54
2021/12/06 22:14:13;;;;;;;3.38;2.72;;;;;;;20.56;43.79;96384.56;10461911;28;20538;-55
2021/12/06 22:19:33;;;;;;;5.22;2.83;;;;;;;20.55;43.97;96391.13;10462647;28;20167;-54
2021/12/06 22:24:53;;;;;;;3.33;2.72;;;;;;;20.53;44.20;96385.28;10469080;28;20045;-55
2021/12/06 22:30:13;;;;;;;4.90;2.92;;;;;;;20.52;44.20;96381.78;10481032;28;20091;-55
2021/12/06 22:35:32;;;;;;;4.80;2.83;;;;;;;20.51;44.18;96377.50;10488668;28;20044;-54
2021/12/06 22:40:52;;;;;;;4.78;2.65;;;;;;;20.49;44.15;96365.44;10499556;28;20040;-55
2021/12/06 22:46:11;;;;;;;3.83;2.95;;;;;;;20.47;44.31;96367.69;10501557;28;20041;-55
2021/12/06 22:51:31;;;;;;;5.60;2.97;;;;;;;20.45;44.20;96370.75;10491981;28;20110;-55
2021/12/06 22:56:50;;;;;;;4.10;3.20;;;;;;;20.44;44.17;96360.25;10491308;28;20048;-55
2021/12/06 23:02:13;;;;;;;3.85;2.70;;;;;;;20.43;44.25;96350.56;10492053;28;20379;-55
2021/12/06 23:07:33;;;;;;;4.63;2.97;;;;;;;20.42;44.06;96359.81;10491191;28;20170;-55
2021/12/06 23:12:52;;;;;;;4.05;2.95;;;;;;;20.41;44.23;96355.53;10490211;28;20048;-55
2021/12/06 23:18:12;;;;;;;2.85;2.50;;;;;;;20.39;44.25;96364.00;10504804;28;20102;-55
2021/12/06 23:23:31;;;;;;;3.88;2.70;;;;;;;20.37;44.07;96362.75;10490920;28;20591;-55
2021/12/06 23:28:52;;;;;;;3.38;2.92;;;;;;;20.34;44.33;96361.50;10491220;28;20052;-55
2021/12/06 23:34:11;;;;;;;3.10;2.60;;;;;;;20.33;43.99;96357.25;10471200;28;20055;-54
2021/12/06 23:50:58;;;;;;;3.30;2.70;;;;;;;20.27;44.05;96329.63;10471577;28;20040;-54
2021/12/06 23:56:19;;;;;;;2.92;2.60;;;;;;;20.27;44.09;96328.84;10474922;28;20704;-55
